Time;durP1;ratioP1;P1;durP2;ratioP2;P2;SDS_P1;SDS_P2;PMS_P1;PMS_P2;Temp;Humidity;BMP_temperature;BMP_pressure;BME280_temperature;BME280_humidity;BME280_pressure;Samples;Min_cycle;Max_cycle;Signal;HPM_P1;HPM_P2
2022/06/15 00:00:56;;;;;;;9.68;4.30;;;13.30;99.90;;;;;;5053133;28;20426;-66
2022/06/15 00:03:23;;;;;;;12.57;4.47;;;13.30;99.90;;;;;;5052868;28;20025;-66
2022/06/15 00:05:50;;;;;;;9.88;4.57;;;13.20;99.90;;;;;;5053036;28;20017;-66
2022/06/15 00:08:15;;;;;;;11.32;5.00;;;13.10;99.90;;;;;;5052999;28;20017;-66
2022/06/15 00:10:41;;;;;;;12.07;5.40;;;13.00;99.90;;;;;;5052974;28;20029;-66
2022/06/15 00:13:08;;;;;;;7.63;4.75;;;12.90;99.90;;;;;;5052964;28;20028;-66
2022/06/15 00:15:34;;;;;;;10.68;4.45;;;12.80;99.90;;;;;;5052776;28;20472;-66
2022/06/15 00:18:00;;;;;;;11.45;5.10;;;12.80;99.90;;;;;;5052738;28;20029;-66
2022/06/15 00:20:26;;;;;;;9.45;4.90;;;12.70;99.90;;;;;;5052904;28;20040;-66
2022/06/15 00:22:52;;;;;;;11.15;4.95;;;12.70;99.90;;;;;;5052909;28;20029;-66
2022/06/15 00:25:17;;;;;;;9.93;5.03;;;12.60;99.90;;;;;;5052711;28;20116;-66
2022/06/15 00:27:43;;;;;;;10.10;5.03;;;12.60;99.90;;;;;;5055237;28;20029;-66
2022/06/15 00:30:09;;;;;;;10.18;5.47;;;12.60;99.90;;;;;;5056379;28;20074;-66
2022/06/15 00:32:35;;;;;;;12.60;6.05;;;12.50;99.90;;;;;;5056297;28;20483;-66
2022/06/15 00:35:00;;;;;;;14.13;5.85;;;12.50;99.90;;;;;;5056299;28;20021;-66
2022/06/15 00:37:26;;;;;;;9.82;5.03;;;12.50;99.90;;;;;;5056438;28;20021;-66
2022/06/15 00:39:52;;;;;;;8.45;4.82;;;12.50;99.90;;;;;;5056057;28;20095;-66
2022/06/15 00:42:19;;;;;;;13.88;5.50;;;12.60;99.90;;;;;;5056389;28;20021;-66
2022/06/15 00:44:45;;;;;;;12.13;5.35;;;12.60;99.90;;;;;;5056364;28;20029;-66
2022/06/15 00:47:32;;;;;;;10.65;5.10;;;12.70;99.90;;;;;;5056036;28;20158;-66
2022/06/15 00:50:07;;;;;;;11.07;4.68;;;12.90;99.90;;;;;;5056050;28;20111;-66
2022/06/15 00:52:43;;;;;;;8.98;5.25;;;13.00;99.90;;;;;;5056163;28;20104;-66
2022/06/15 00:55:16;;;;;;;11.18;5.22;;;13.10;99.90;;;;;;5055857;28;20029;-66
2022/06/15 00:57:41;;;;;;;12.45;5.40;;;13.10;99.90;;;;;;5055877;28;20490;-66
2022/06/15 01:00:08;;;;;;;10.43;5.80;;;13.10;99.90;;;;;;5055732;28;20029;-66
2022/06/15 01:02:36;;;;;;;9.20;5.82;;;12.90;99.90;;;;;;5054540;28;20025;-66
2022/06/15 01:05:06;;;;;;;13.02;6.05;;;12.80;99.90;;;;;;5055766;28;20044;-66
2022/06/15 01:10:26;;;;;;;10.75;5.78;;;12.60;99.90;;;;;;5111160;27;20380;-65
2022/06/15 01:13:22;;;;;;;11.68;5.65;;;12.50;99.90;;;;;;5111317;28;20032;-65
2022/06/15 01:16:16;;;;;;;11.57;5.38;;;12.40;99.90;;;;;;5110892;28;20051;-65
2022/06/15 01:19:02;;;;;;;14.02;5.72;;;12.40;99.90;;;;;;5109600;28;20030;-65
2022/06/15 01:21:35;;;;;;;15.95;5.80;;;12.40;99.90;;;;;;5111118;28;20028;-65
2022/06/15 01:27:38;;;;;;;10.57;5.47;;;12.50;99.90;;;;;;5111101;27;20137;-65
2022/06/15 01:30:18;;;;;;;13.82;5.97;;;12.50;99.90;;;;;;5110872;28;20027;-65
2022/06/15 01:32:59;;;;;;;12.15;6.20;;;12.50;99.90;;;;;;5111248;28;20069;-65
2022/06/15 01:38:21;;;;;;;12.75;5.18;;;12.50;99.90;;;;;;5111217;27;20923;-66
2022/06/15 01:40:52;;;;;;;14.55;5.80;;;12.40;99.90;;;;;;5111319;28;20073;-66
2022/06/15 01:43:22;;;;;;;9.73;5.60;;;12.20;99.90;;;;;;5111266;28;20054;-66
2022/06/15 01:45:49;;;;;;;10.63;6.10;;;12.10;99.90;;;;;;5111230;28;20055;-66
2022/06/15 01:48:16;;;;;;;12.05;5.72;;;12.00;99.90;;;;;;5111190;28;20046;-66
2022/06/15 01:50:47;;;;;;;9.18;5.63;;;11.90;99.90;;;;;;5110894;28;20012;-66
2022/06/15 01:58:48;;;;;;;9.07;6.30;;;11.60;99.90;;;;;;5070614;28;20437;-65
2022/06/15 02:01:21;;;;;;;13.25;5.95;;;11.60;99.90;;;;;;5070780;28;20420;-65
2022/06/15 02:03:54;;;;;;;13.02;6.63;;;11.70;99.90;;;;;;5070478;28;20028;-65
2022/06/15 02:09:16;;;;;;;11.38;6.55;;;11.70;99.90;;;;;;5111155;27;20343;-66
2022/06/15 02:11:43;;;;;;;13.50;6.45;;;11.70;99.90;;;;;;5111050;28;20081;-66
2022/06/15 02:14:33;;;;;;;14.18;6.03;;;11.60;99.90;;;;;;5111237;28;20020;-66
2022/06/15 02:17:05;;;;;;;9.88;5.88;;;11.50;99.90;;;;;;5110882;28;20028;-66
2022/06/15 02:19:37;;;;;;;10.65;5.95;;;11.40;99.90;;;;;;5111151;28;20028;-66
2022/06/15 02:22:09;;;;;;;14.05;6.43;;;11.30;99.90;;;;;;5110857;28;20024;-66
2022/06/15 02:24:37;;;;;;;11.43;6.68;;;11.30;99.90;;;;;;5110873;28;20110;-65
2022/06/15 02:27:05;;;;;;;12.20;6.90;;;11.20;99.90;;;;;;5110936;28;20060;-66
2022/06/15 02:29:34;;;;;;;10.38;6.60;;;11.20;99.90;;;;;;5110768;28;20027;-66
2022/06/15 02:32:00;;;;;;;16.27;7.07;;;11.20;99.90;;;;;;5110886;28;20102;-66
2022/06/15 02:34:26;;;;;;;16.67;7.45;;;11.30;99.90;;;;;;5110785;28;20020;-66
2022/06/15 02:36:52;;;;;;;13.70;6.80;;;11.30;99.90;;;;;;5110695;28;20025;-66
2022/06/15 02:39:18;;;;;;;15.43;6.80;;;11.40;99.90;;;;;;5110517;28;20089;-66
2022/06/15 02:41:44;;;;;;;12.50;7.05;;;11.50;99.90;;;;;;5110513;28;20024;-66
2022/06/15 02:44:13;;;;;;;14.45;6.55;;;11.60;99.90;;;;;;5110511;28;20021;-66
2022/06/15 02:46:43;;;;;;;16.00;6.80;;;11.70;99.90;;;;;;5110538;28;20023;-66
2022/06/15 02:49:09;;;;;;;16.33;7.60;;;11.70;99.90;;;;;;5110585;28;20162;-66
2022/06/15 02:51:49;;;;;;;12.23;6.50;;;11.70;99.90;;;;;;5110324;28;20095;-66
2022/06/15 02:54:36;;;;;;;13.90;6.78;;;11.70;99.90;;;;;;5110540;28;20514;-66
2022/06/15 02:57:03;;;;;;;16.92;7.20;;;11.70;99.90;;;;;;5108966;28;20434;-66
2022/06/15 02:59:28;;;;;;;14.80;7.30;;;11.70;99.90;;;;;;5110406;28;20115;-66
2022/06/15 03:01:56;;;;;;;14.15;6.90;;;11.70;99.90;;;;;;5110195;28;20452;-66
2022/06/15 03:04:22;;;;;;;14.32;7.25;;;11.70;99.90;;;;;;5110362;28;20028;-66
2022/06/15 03:06:48;;;;;;;14.80;7.13;;;11.70;99.90;;;;;;5109721;28;20090;-66
2022/06/15 03:09:13;;;;;;;16.85;7.78;;;11.70;99.90;;;;;;5110220;28;20486;-66
2022/06/15 03:11:40;;;;;;;16.40;7.15;;;11.70;99.90;;;;;;5110166;28;20028;-66
2022/06/15 03:14:06;;;;;;;15.32;7.25;;;11.70;99.90;;;;;;5109937;28;20029;-65
2022/06/15 03:16:32;;;;;;;14.85;7.90;;;11.60;99.90;;;;;;5110058;28;20028;-66
2022/06/15 03:18:58;;;;;;;12.40;7.28;;;11.60;99.90;;;;;;5104493;28;20115;-66
2022/06/15 03:21:24;;;;;;;16.13;8.15;;;11.60;99.90;;;;;;5096302;28;20032;-66
2022/06/15 03:23:49;;;;;;;15.35;7.43;;;11.60;99.90;;;;;;5096115;28;20115;-66
2022/06/15 03:26:15;;;;;;;12.75;7.70;;;11.60;99.90;;;;;;5096112;28;20040;-66
2022/06/15 03:28:41;;;;;;;14.73;8.07;;;11.50;99.90;;;;;;5094762;28;20028;-66
2022/06/15 03:31:07;;;;;;;14.45;7.68;;;11.50;99.90;;;;;;5096233;28;20032;-66
2022/06/15 03:33:33;;;;;;;13.75;6.97;;;11.50;99.90;;;;;;5096215;28;20021;-66
2022/06/15 03:35:58;;;;;;;13.60;7.47;;;11.50;99.90;;;;;;5096138;28;20382;-66
2022/06/15 03:38:25;;;;;;;14.75;7.88;;;11.50;99.90;;;;;;5095951;28;20020;-65
2022/06/15 03:40:51;;;;;;;14.48;7.65;;;11.60;99.90;;;;;;5096034;28;20032;-66
2022/06/15 03:43:17;;;;;;;14.77;7.90;;;11.60;99.90;;;;;;5095912;28;20138;-66
2022/06/15 03:45:43;;;;;;;14.25;8.18;;;11.60;99.90;;;;;;5095933;28;20147;-65
2022/06/15 03:48:10;;;;;;;12.52;8.02;;;11.60;99.90;;;;;;5095827;28;20027;-66
2022/06/15 03:50:37;;;;;;;13.07;8.05;;;11.60;99.90;;;;;;5095839;28;20534;-66
2022/06/15 03:53:03;;;;;;;10.30;7.05;;;11.70;99.90;;;;;;5095807;28;20063;-66
2022/06/15 03:55:29;;;;;;;14.63;7.70;;;11.70;99.90;;;;;;5095471;28;20016;-66
2022/06/15 03:57:56;;;;;;;10.82;7.50;;;11.70;99.90;;;;;;5095734;28;20032;-66
2022/06/15 04:00:27;;;;;;;11.35;7.13;;;11.70;99.90;;;;;;5095426;28;20020;-65
2022/06/15 04:02:53;;;;;;;13.13;6.82;;;11.80;99.90;;;;;;5095454;28;20099;-66
2022/06/15 04:05:23;;;;;;;11.85;6.65;;;11.70;99.90;;;;;;5095312;28;20107;-66
2022/06/15 04:10:35;;;;;;;15.82;7.90;;;11.80;99.90;;;;;;5095051;28;20020;-66
2022/06/15 04:13:01;;;;;;;12.27;7.18;;;11.80;99.90;;;;;;5095388;28;20024;-66
2022/06/15 04:15:27;;;;;;;15.13;7.90;;;11.80;99.90;;;;;;5095366;28;20490;-66
2022/06/15 04:17:53;;;;;;;11.35;7.05;;;11.90;99.90;;;;;;5095152;28;20046;-66
2022/06/15 04:20:36;;;;;;;14.10;6.90;;;12.00;99.90;;;;;;5094873;28;20024;-66
2022/06/15 04:23:08;;;;;;;14.25;6.80;;;12.10;99.90;;;;;;5095182;28;20024;-66
2022/06/15 04:25:38;;;;;;;16.35;7.10;;;12.30;99.90;;;;;;5094943;28;20533;-66
2022/06/15 04:28:05;;;;;;;12.35;7.53;;;12.40;99.90;;;;;;5094860;28;20032;-66
2022/06/15 04:30:31;;;;;;;16.38;7.32;;;12.60;99.90;;;;;;5094123;28;20027;-66
2022/06/15 04:32:57;;;;;;;13.48;6.72;;;13.10;99.90;;;;;;5095036;28;20029;-66
2022/06/15 04:35:23;;;;;;;10.32;6.13;;;13.70;99.90;;;;;;5095020;28;20386;-66
2022/06/15 04:37:49;;;;;;;11.55;5.85;;;14.20;99.90;;;;;;5094917;28;20470;-66
2022/06/15 04:40:15;;;;;;;13.57;4.80;;;14.60;99.90;;;;;;5094569;28;20073;-66
2022/06/15 04:42:41;;;;;;;10.00;4.25;;;15.90;99.90;;;;;;5094839;28;20139;-66
2022/06/15 04:45:09;;;;;;;11.93;4.40;;;17.50;99.90;;;;;;5094795;28;20070;-66
2022/06/15 04:47:35;;;;;;;7.00;4.38;;;18.70;99.90;;;;;;5093323;28;20064;-66
2022/06/15 04:50:00;;;;;;;10.55;4.68;;;19.90;99.90;;;;;;5094662;28;20047;-66
2022/06/15 04:52:26;;;;;;;9.38;4.05;;;20.70;99.90;;;;;;5094678;28;20068;-66
2022/06/15 04:54:51;;;;;;;8.32;3.70;;;21.70;99.90;;;;;;5094588;28;20463;-66
2022/06/15 04:57:17;;;;;;;9.75;3.88;;;22.40;99.70;;;;;;5094585;28;20026;-66
2022/06/15 04:59:42;;;;;;;9.82;3.55;;;22.20;97.90;;;;;;5094489;28;20024;-64
2022/06/15 05:02:10;;;;;;;8.80;4.00;;;21.80;98.00;;;;;;5094195;28;20027;-64
2022/06/15 05:04:36;;;;;;;10.82;3.92;;;22.80;96.70;;;;;;5094476;28;20030;-64
2022/06/15 05:07:02;;;;;;;6.72;3.78;;;23.10;94.40;;;;;;5093884;28;20482;-64
2022/06/15 05:09:28;;;;;;;8.18;3.47;;;23.70;93.30;;;;;;5094143;28;20048;-64
2022/06/15 05:11:54;;;;;;;8.57;3.50;;;23.50;93.10;;;;;;5094338;28;20499;-67
2022/06/15 05:14:19;;;;;;;6.10;3.45;;;23.60;93.80;;;;;;5094279;28;20044;-67
2022/06/15 05:16:45;;;;;;;11.55;3.95;;;24.40;91.00;;;;;;5094203;28;20076;-67
2022/06/15 05:19:11;;;;;;;6.55;3.47;;;23.50;91.30;;;;;;5093778;28;20024;-64
2022/06/15 05:21:39;;;;;;;10.85;3.92;;;23.30;92.10;;;;;;5093875;28;20024;-64
2022/06/15 05:24:05;;;;;;;7.55;3.55;;;22.90;92.10;;;;;;5094039;28;20051;-64
2022/06/15 05:26:30;;;;;;;9.60;3.60;;;23.40;92.10;;;;;;5093969;28;20020;-67
2022/06/15 05:28:56;;;;;;;10.57;3.78;;;22.60;92.00;;;;;;5093731;28;20458;-64
2022/06/15 05:31:23;;;;;;;9.00;3.85;;;22.90;92.30;;;;;;5093634;28;20020;-66
2022/06/15 05:33:53;;;;;;;8.38;3.90;;;24.10;91.00;;;;;;5092624;28;20027;-67
2022/06/15 05:36:20;;;;;;;5.72;3.15;;;23.70;90.50;;;;;;5094423;28;20035;-66
2022/06/15 05:38:46;;;;;;;7.78;3.33;;;24.40;89.40;;;;;;5093963;28;20034;-66
2022/06/15 05:41:12;;;;;;;8.82;3.30;;;24.30;90.10;;;;;;5091910;28;20389;-66
2022/06/15 05:43:41;;;;;;;7.15;3.25;;;25.00;87.60;;;;;;5096433;28;20038;-67
2022/06/15 05:46:15;;;;;;;8.30;3.60;;;25.20;85.50;;;;;;5092834;28;20028;-66
2022/06/15 05:48:41;;;;;;;7.90;3.63;;;25.50;83.60;;;;;;5092741;28;20031;-66
2022/06/15 05:51:07;;;;;;;8.68;3.65;;;25.00;85.80;;;;;;5103188;28;20394;-66
2022/06/15 05:53:32;;;;;;;10.02;3.53;;;25.50;84.00;;;;;;5101553;28;20024;-66
2022/06/15 05:55:58;;;;;;;8.10;3.20;;;25.10;82.40;;;;;;5107136;28;20040;-66
2022/06/15 05:58:23;;;;;;;8.65;3.53;;;26.00;83.60;;;;;;5095052;28;20031;-65
2022/06/15 06:00:49;;;;;;;7.22;3.35;;;25.80;81.20;;;;;;5101222;28;20028;-66
2022/06/15 06:03:16;;;;;;;6.07;3.17;;;26.40;79.20;;;;;;5109428;28;20055;-66
2022/06/15 06:05:42;;;;;;;7.35;3.70;;;26.70;77.60;;;;;;5102997;28;20482;-66
2022/06/15 06:08:07;;;;;;;8.27;3.75;;;26.50;78.10;;;;;;5099810;28;20047;-66
2022/06/15 06:10:33;;;;;;;9.77;3.88;;;25.50;78.60;;;;;;5102190;28;20020;-66
2022/06/15 06:12:59;;;;;;;8.07;4.10;;;25.40;79.20;;;;;;5107254;28;20069;-66
2022/06/15 06:15:26;;;;;;;10.95;4.07;;;25.50;78.20;;;;;;5096195;28;20406;-66
2022/06/15 06:17:51;;;;;;;5.57;3.30;;;26.10;77.90;;;;;;5111339;28;20020;-66
2022/06/15 06:20:17;;;;;;;6.28;3.70;;;26.20;76.00;;;;;;5086171;28;20397;-66
2022/06/15 06:22:43;;;;;;;7.30;3.70;;;26.10;76.20;;;;;;5104981;28;20027;-66
2022/06/15 06:25:10;;;;;;;12.35;3.70;;;26.40;75.30;;;;;;5097160;28;20031;-66
2022/06/15 06:27:35;;;;;;;5.55;3.45;;;25.90;75.80;;;;;;5109722;28;20474;-66
2022/06/15 06:30:04;;;;;;;7.75;3.40;;;26.10;75.30;;;;;;5093145;28;20017;-66
2022/06/15 06:32:30;;;;;;;7.10;3.45;;;26.70;74.40;;;;;;5103359;28;20466;-66
2022/06/15 06:34:55;;;;;;;7.15;3.50;;;27.60;71.50;;;;;;5102244;28;20065;-66
2022/06/15 06:37:23;;;;;;;7.05;3.80;;;26.60;72.20;;;;;;5103728;28;20031;-67
2022/06/15 06:39:54;;;;;;;7.57;3.97;;;27.40;72.30;;;;;;5105109;28;20462;-66
2022/06/15 06:42:19;;;;;;;6.35;3.38;;;27.00;70.80;;;;;;5097281;28;20024;-66
2022/06/15 06:44:45;;;;;;;7.30;3.55;;;27.20;70.70;;;;;;5093633;28;20082;-66
2022/06/15 06:47:10;;;;;;;8.23;3.40;;;26.40;71.40;;;;;;5094366;28;20123;-66
2022/06/15 06:49:36;;;;;;;7.47;3.63;;;27.40;73.20;;;;;;5085847;28;20024;-66
2022/06/15 06:52:03;;;;;;;7.45;3.72;;;26.90;70.90;;;;;;5109519;28;20032;-66
2022/06/15 06:54:29;;;;;;;6.07;3.90;;;26.10;72.20;;;;;;5108016;28;20367;-67
2022/06/15 06:56:55;;;;;;;9.35;4.05;;;26.80;73.90;;;;;;5095172;28;20031;-66
2022/06/15 06:59:20;;;;;;;9.07;3.55;;;27.40;71.00;;;;;;5099424;28;20028;-66
2022/06/15 07:01:47;;;;;;;11.30;3.97;;;27.60;71.10;;;;;;5096491;28;20458;-67
2022/06/15 07:04:14;;;;;;;9.02;3.97;;;28.40;68.80;;;;;;5110806;28;20020;-66
2022/06/15 07:06:40;;;;;;;10.68;3.60;;;27.40;68.50;;;;;;5087564;28;20020;-67
2022/06/15 07:09:06;;;;;;;7.55;3.60;;;27.10;71.30;;;;;;5098024;28;20073;-67
2022/06/15 07:11:32;;;;;;;6.88;3.90;;;26.70;71.30;;;;;;5105760;28;20488;-66
2022/06/15 07:13:58;;;;;;;6.30;3.50;;;26.50;72.90;;;;;;5107061;28;20098;-66
2022/06/15 07:16:24;;;;;;;9.70;4.07;;;27.40;73.00;;;;;;5098884;28;20103;-67
2022/06/15 07:18:49;;;;;;;7.00;3.50;;;27.50;70.60;;;;;;5100948;28;20139;-66
2022/06/15 07:21:18;;;;;;;12.48;3.88;;;28.30;67.80;;;;;;5100108;28;20544;-66
2022/06/15 07:23:47;;;;;;;7.38;3.60;;;28.20;68.20;;;;;;5108989;28;20024;-66
2022/06/15 07:26:16;;;;;;;8.55;3.78;;;27.10;70.70;;;;;;5096520;28;20485;-66
2022/06/15 07:28:43;;;;;;;6.22;3.88;;;27.80;71.30;;;;;;5110037;28;20016;-66
2022/06/15 07:31:09;;;;;;;9.30;3.97;;;27.50;69.50;;;;;;5099153;28;20029;-66
2022/06/15 07:33:36;;;;;;;7.32;3.50;;;27.60;69.70;;;;;;5113722;28;20069;-66
2022/06/15 07:36:03;;;;;;;10.07;3.95;;;29.30;70.30;;;;;;5093596;28;20038;-66
2022/06/15 07:38:28;;;;;;;6.88;3.30;;;28.60;66.50;;;;;;5096802;28;20028;-66
2022/06/15 07:40:55;;;;;;;11.48;3.95;;;30.30;65.60;;;;;;5094270;28;20076;-66
2022/06/15 07:43:20;;;;;;;10.98;3.53;;;29.90;62.80;;;;;;5102156;28;20027;-67
2022/06/15 07:45:46;;;;;;;9.27;3.40;;;30.30;63.50;;;;;;5083439;28;20555;-66
2022/06/15 07:50:58;;;;;;;9.10;3.22;;;30.20;59.80;;;;;;5092995;28;20386;-66
2022/06/15 07:53:24;;;;;;;9.73;6.72;;;30.40;61.50;;;;;;5105246;28;20366;-66
2022/06/15 07:55:52;;;;;;;6.75;3.60;;;30.40;59.60;;;;;;5101693;28;20021;-66
2022/06/15 07:58:18;;;;;;;10.18;3.45;;;29.70;62.50;;;;;;5093636;28;20036;-66
2022/06/15 08:00:47;;;;;;;5.55;3.13;;;29.50;62.70;;;;;;5091622;28;20486;-66
2022/06/15 08:03:13;;;;;;;8.13;3.40;;;29.60;61.50;;;;;;5094357;28;20043;-67
2022/06/15 08:05:44;;;;;;;7.32;3.92;;;29.40;63.00;;;;;;5086994;28;20027;-66
2022/06/15 08:08:13;;;;;;;8.70;3.60;;;30.20;60.50;;;;;;5097656;28;20043;-66
2022/06/15 08:10:39;;;;;;;9.52;3.75;;;30.30;60.10;;;;;;5095706;28;20084;-66
2022/06/15 08:13:09;;;;;;;10.20;3.40;;;30.80;59.90;;;;;;5094980;28;20031;-66
2022/06/15 08:15:35;;;;;;;10.23;3.72;;;30.20;58.80;;;;;;5088676;28;20363;-66
2022/06/15 08:18:05;;;;;;;9.75;3.85;;;29.10;61.80;;;;;;5090456;28;20375;-66
2022/06/15 08:20:50;;;;;;;9.68;4.07;;;29.60;60.10;;;;;;5093325;28;20047;-65
2022/06/15 08:23:21;;;;;;;7.13;3.83;;;29.50;60.90;;;;;;5064703;28;20028;-67
2022/06/15 08:25:50;;;;;;;5.38;3.00;;;31.40;59.30;;;;;;5090374;28;20034;-66
2022/06/15 08:28:20;;;;;;;6.40;3.15;;;31.50;57.90;;;;;;5092170;28;20420;-66
2022/06/15 08:30:46;;;;;;;13.23;3.80;;;31.10;58.80;;;;;;5090899;28;20043;-66
2022/06/15 08:33:13;;;;;;;7.15;3.72;;;30.70;59.30;;;;;;5090282;28;20073;-66
2022/06/15 08:35:39;;;;;;;9.15;3.25;;;31.10;57.10;;;;;;5102712;28;20111;-66
2022/06/15 08:38:08;;;;;;;4.75;2.88;;;30.70;59.30;;;;;;5093582;28;20497;-66
2022/06/15 08:40:49;;;;;;;5.10;2.97;;;30.30;58.00;;;;;;5093205;28;20023;-66
2022/06/15 08:43:42;;;;;;;5.68;2.95;;;30.20;58.90;;;;;;5099017;28;20075;-66
2022/06/15 08:46:34;;;;;;;6.88;2.90;;;28.70;59.30;;;;;;5092330;28;20040;-65
2022/06/15 08:49:26;;;;;;;9.43;3.08;;;29.50;59.60;;;;;;5081115;28;20486;-66
2022/06/15 08:51:58;;;;;;;8.70;3.20;;;31.00;57.30;;;;;;5086762;28;20024;-67
2022/06/15 08:54:27;;;;;;;;;;;30.40;56.30;;;;;;5075070;28;20105;-66
2022/06/15 08:57:01;;;;;;;5.93;2.60;;;30.10;56.90;;;;;;5096385;28;20377;-65
2022/06/15 08:59:48;;;;;;;6.38;2.70;;;30.40;56.90;;;;;;5100057;28;20519;-66
2022/06/15 09:02:42;;;;;;;7.03;2.30;;;30.10;57.60;;;;;;5091485;28;20073;-65
2022/06/15 09:05:33;;;;;;;5.88;2.80;;;29.90;57.90;;;;;;5090085;28;20445;-66
2022/06/15 09:08:22;;;;;;;7.57;3.10;;;31.00;57.00;;;;;;5094905;28;20047;-66
2022/06/15 09:10:59;;;;;;;6.60;2.85;;;30.90;56.30;;;;;;5085145;28;20020;-66
2022/06/15 09:14:03;;;;;;;8.27;2.72;;;29.90;58.70;;;;;;5103031;28;20085;-65
2022/06/15 09:16:54;;;;;;;8.93;3.17;;;29.80;59.70;;;;;;5093143;28;20104;-66
2022/06/15 09:19:26;;;;;;;8.20;3.05;;;30.30;57.50;;;;;;5102151;28;20047;-68
2022/06/15 09:21:59;;;;;;;9.27;3.35;;;31.40;57.10;;;;;;5087585;28;20409;-68
2022/06/15 09:24:38;;;;;;;7.82;3.30;;;31.20;56.80;;;;;;5086059;28;20020;-66
2022/06/15 09:27:10;;;;;;;6.35;3.05;;;30.30;56.60;;;;;;5089333;28;20043;-66
2022/06/15 09:29:45;;;;;;;9.70;3.25;;;31.00;56.90;;;;;;5084917;28;20024;-66
2022/06/15 09:32:17;;;;;;;4.90;2.42;;;31.20;55.00;;;;;;5098584;28;20395;-66
2022/06/15 09:34:55;;;;;;;9.23;3.08;;;32.00;56.60;;;;;;5089338;28;20107;-66
2022/06/15 09:37:23;;;;;;;7.85;2.90;;;31.20;56.30;;;;;;5089675;28;20028;-66
2022/06/15 09:39:49;;;;;;;8.25;3.28;;;31.70;56.40;;;;;;5091618;28;20012;-65
2022/06/15 09:42:23;;;;;;;8.20;3.40;;;31.00;56.40;;;;;;5092284;28;20029;-65
2022/06/15 09:45:10;;;;;;;9.88;3.20;;;29.40;59.10;;;;;;5088937;28;20030;-65
2022/06/15 09:48:00;;;;;;;6.82;2.63;;;30.10;57.60;;;;;;5092373;28;20539;-65
2022/06/15 09:50:50;;;;;;;8.38;2.60;;;31.00;57.30;;;;;;5090357;28;20028;-66
2022/06/15 09:53:46;;;;;;;5.60;2.50;;;31.60;54.40;;;;;;5087531;28;20024;-65
2022/06/15 09:56:16;;;;;;;5.63;2.55;;;31.50;57.30;;;;;;5090798;28;20063;-66
2022/06/15 09:58:48;;;;;;;7.68;2.80;;;31.20;55.40;;;;;;5093419;28;20059;-65
2022/06/15 10:01:14;;;;;;;7.53;2.80;;;30.40;56.60;;;;;;5086516;28;20546;-66
2022/06/15 10:03:46;;;;;;;5.85;2.85;;;29.50;56.30;;;;;;5091434;28;20286;-66
2022/06/15 10:06:22;;;;;;;9.55;3.10;;;30.30;58.30;;;;;;5097171;28;20038;-66
2022/06/15 10:08:48;;;;;;;6.28;3.10;;;31.00;55.80;;;;;;5101856;28;20470;-66
2022/06/15 10:11:19;;;;;;;6.72;2.80;;;31.70;54.50;;;;;;5104278;28;20099;-66
2022/06/15 10:13:46;;;;;;;6.57;2.42;;;30.90;54.70;;;;;;5095225;28;20051;-66
2022/06/15 10:16:20;;;;;;;7.30;2.47;;;30.90;55.40;;;;;;5093933;28;20029;-67
2022/06/15 10:18:52;;;;;;;7.75;2.45;;;31.10;56.40;;;;;;5090140;28;20060;-66
2022/06/15 10:21:36;;;;;;;7.93;2.90;;;31.00;55.90;;;;;;5082493;28;20126;-66
2022/06/15 10:24:16;;;;;;;6.78;2.85;;;30.90;54.00;;;;;;5088484;28;20126;-67
2022/06/15 10:26:49;;;;;;;4.65;2.60;;;30.70;54.60;;;;;;5098579;28;20032;-66
2022/06/15 10:37:29;;;;;;;5.10;2.60;;;31.10;54.50;;;;;;5107562;27;20687;-65
2022/06/15 10:39:59;;;;;;;11.20;2.67;;;30.20;54.00;;;;;;5106526;28;20505;-66
2022/06/15 10:42:51;;;;;;;6.88;2.35;;;29.80;55.60;;;;;;5107521;28;20096;-66
2022/06/15 10:45:32;;;;;;;9.98;3.25;;;30.90;56.20;;;;;;5109995;28;20040;-66
2022/06/15 10:51:13;;;;;;;7.45;3.15;;;29.30;56.30;;;;;;5095675;28;20337;-66
2022/06/15 10:53:45;;;;;;;7.50;2.70;;;29.10;55.80;;;;;;5093401;28;20433;-66
2022/06/15 11:05:12;;;;;;;6.97;3.00;;;28.80;58.50;;;;;;5109457;27;20139;-67
2022/06/15 11:07:48;;;;;;;7.65;2.90;;;29.50;55.40;;;;;;5109221;28;20028;-67
2022/06/15 11:10:39;;;;;;;5.97;2.97;;;29.00;56.00;;;;;;5109107;28;20024;-67
2022/06/15 11:13:38;;;;;;;7.20;2.90;;;28.90;57.30;;;;;;5105675;28;20032;-67
2022/06/15 11:19:16;;;;;;;6.97;2.75;;;29.00;56.00;;;;;;5109095;28;20478;-67
2022/06/15 11:21:52;;;;;;;9.25;2.95;;;28.70;57.10;;;;;;5110701;28;20049;-64
2022/06/15 11:24:37;;;;;;;7.43;2.80;;;28.50;58.20;;;;;;5109562;28;20032;-67
2022/06/15 11:27:12;;;;;;;4.63;2.40;;;28.50;55.80;;;;;;5109029;28;20089;-67
2022/06/15 11:32:42;;;;;;;9.98;3.05;;;29.00;58.00;;;;;;5089412;28;20825;-66
2022/06/15 11:35:48;;;;;;;5.78;2.53;;;29.40;57.30;;;;;;5076919;28;20035;-66
2022/06/15 11:38:24;;;;;;;6.25;2.67;;;29.60;56.50;;;;;;5068959;28;20399;-67
2022/06/15 11:40:54;;;;;;;4.65;2.42;;;29.30;56.40;;;;;;5084592;28;20032;-66
2022/06/15 11:43:33;;;;;;;7.13;3.00;;;29.30;56.70;;;;;;5081726;28;20495;-66
2022/06/15 11:46:14;;;;;;;6.28;2.60;;;28.50;55.60;;;;;;5067700;28;20029;-66
2022/06/15 11:49:04;;;;;;;5.70;2.92;;;28.20;59.30;;;;;;5068539;28;20513;-67
2022/06/15 11:54:50;;;;;;;8.15;2.72;;;28.30;57.40;;;;;;5069649;28;20399;-66
2022/06/15 12:00:35;;;;;;;5.57;2.70;;;28.10;58.60;;;;;;5100725;28;20331;-67
2022/06/15 12:03:32;;;;;;;9.95;3.47;;;28.70;55.10;;;;;;5093814;28;20038;-67
2022/06/15 12:06:12;;;;;;;5.05;2.83;;;28.30;56.70;;;;;;5078385;28;20518;-67
2022/06/15 12:09:04;;;;;;;10.40;2.95;;;28.20;58.00;;;;;;5100707;28;20505;-66
2022/06/15 12:14:47;;;;;;;7.65;2.90;;;28.40;57.60;;;;;;5088119;28;20040;-67
2022/06/15 12:17:29;;;;;;;5.75;2.45;;;28.70;57.80;;;;;;5073800;28;20028;-67
2022/06/15 12:22:48;;;;;;;6.07;2.78;;;28.20;58.40;;;;;;5068671;28;20349;-67
2022/06/15 12:25:43;;;;;;;5.60;2.83;;;28.00;57.60;;;;;;5048793;28;20068;-66
2022/06/15 12:28:26;;;;;;;7.85;2.40;;;27.40;56.90;;;;;;5044697;28;20029;-67
2022/06/15 12:31:15;;;;;;;6.78;2.75;;;27.40;57.20;;;;;;5054598;28;20568;-66
2022/06/15 12:34:08;;;;;;;6.10;2.80;;;27.80;57.30;;;;;;5049704;28;20495;-66
2022/06/15 12:36:52;;;;;;;5.80;2.28;;;28.20;57.20;;;;;;5042970;28;20041;-67
2022/06/15 12:39:31;;;;;;;10.18;2.58;;;28.40;57.10;;;;;;5059467;28;20028;-67
2022/06/15 12:42:14;;;;;;;4.47;2.15;;;28.70;56.20;;;;;;5060961;28;20479;-66
2022/06/15 12:44:55;;;;;;;6.40;2.58;;;28.60;56.00;;;;;;5060269;28;20029;-66
2022/06/15 12:47:24;;;;;;;4.63;2.40;;;28.70;56.70;;;;;;5053357;28;20119;-66
2022/06/15 12:50:24;;;;;;;5.20;2.50;;;28.60;57.00;;;;;;5067933;28;20020;-66
2022/06/15 12:53:17;;;;;;;4.82;2.60;;;28.70;56.90;;;;;;5029870;28;20511;-67
2022/06/15 12:56:14;;;;;;;5.68;2.30;;;28.60;57.10;;;;;;5063188;28;20040;-66
2022/06/15 12:59:07;;;;;;;6.72;2.15;;;28.80;57.60;;;;;;5060290;28;20037;-66
2022/06/15 13:01:43;;;;;;;6.22;2.50;;;28.80;55.60;;;;;;5040609;28;20032;-66
2022/06/15 13:07:28;;;;;;;6.95;2.67;;;28.70;56.30;;;;;;5089166;28;20109;-67
2022/06/15 13:10:16;;;;;;;10.35;2.58;;;28.80;57.40;;;;;;5068687;28;20025;-67
2022/06/15 13:13:00;;;;;;;4.97;2.40;;;28.80;56.10;;;;;;5078173;28;20035;-66
2022/06/15 13:15:51;;;;;;;5.18;2.78;;;29.00;57.50;;;;;;5076418;28;20020;-66
2022/06/15 13:18:18;;;;;;;7.47;2.72;;;28.60;57.00;;;;;;5079409;28;20060;-68
2022/06/15 13:20:57;;;;;;;6.82;2.53;;;28.50;57.20;;;;;;5084274;28;20436;-66
2022/06/15 13:26:10;;;;;;;6.75;2.38;;;28.40;58.40;;;;;;5049439;28;20393;-67
2022/06/15 13:28:42;;;;;;;4.75;2.50;;;27.80;59.20;;;;;;5043262;28;20037;-67
2022/06/15 13:31:13;;;;;;;7.93;3.10;;;27.90;59.80;;;;;;5054877;28;20031;-67
2022/06/15 13:36:24;;;;;;;6.32;3.25;;;27.80;58.70;;;;;;5107283;27;20386;-66
2022/06/15 13:38:50;;;;;;;5.53;2.67;;;28.50;59.00;;;;;;5108474;28;20417;-66
2022/06/15 13:41:23;;;;;;;5.13;2.92;;;28.50;58.70;;;;;;5116376;28;20024;-67
2022/06/15 13:46:32;;;;;;;5.53;2.50;;;28.60;57.20;;;;;;5096343;28;20105;-67
2022/06/15 13:49:14;;;;;;;5.97;2.40;;;28.70;56.90;;;;;;5077791;28;20047;-67
2022/06/15 13:51:52;;;;;;;3.13;2.10;;;28.90;56.30;;;;;;5108312;28;20031;-67
2022/06/15 13:57:26;;;;;;;6.93;2.42;;;28.60;55.50;;;;;;5110876;27;20412;-66
2022/06/15 14:00:17;;;;;;;7.38;2.63;;;28.40;58.00;;;;;;5110961;28;20028;-66
2022/06/15 14:05:53;;;;;;;7.03;2.65;;;28.50;56.20;;;;;;5111169;27;20412;-67
2022/06/15 14:08:49;;;;;;;8.50;2.70;;;28.50;57.30;;;;;;5110126;28;20110;-67
2022/06/15 14:14:55;;;;;;;7.28;2.50;;;28.60;57.00;;;;;;5090435;27;20386;-67
2022/06/15 14:20:38;;;;;;;6.00;2.45;;;28.20;56.30;;;;;;5086212;28;20733;-67
2022/06/15 14:23:07;;;;;;;6.15;2.40;;;28.50;56.20;;;;;;5090627;28;20028;-67
2022/06/15 14:25:47;;;;;;;5.47;2.53;;;27.80;56.60;;;;;;5089110;28;20016;-67
2022/06/15 14:28:15;;;;;;;5.13;2.20;;;28.10;57.80;;;;;;5086461;28;20032;-66
2022/06/15 14:30:44;;;;;;;8.18;2.58;;;28.30;57.90;;;;;;5086065;28;20032;-66
2022/06/15 14:33:22;;;;;;;3.72;2.33;;;28.50;57.70;;;;;;5089900;28;20038;-66